Terminal Aerodrome Forecast
Issued by NWS

Home | Current Version | Previous Version | Text Only | Print | Product List | Glossary On
Versions: 1 2 3 4 5 6 7 8 9 10 11 12 13 14 15 16 17 18 19 20 21 22 23 24 25
000
FTUS43 KGLD 222340
TAFMCK
TAF
KMCK 222340Z 2300/2324 18019G31KT P6SM SCT200 WS020/18045KT
     FM231200 15008KT P6SM VCSH BKN200
     FM231800 18010KT P6SM BKN060
     FM232000 17011KT 6SM SHRA BKN050=

USA.gov is the U.S. government's official web portal to all federal, state and local government web resources and services.